Flight Track Log - Related Links

Times and Time Zones

All times are in EDT time to prevent confusion due to time zone crossing. See the FDX1713 flight status page for this flight to view local times or setup timezone preferences in your user account.

Time Position Orientation Groundspeed Altitude Reporting Facility
EDT Latitude Longitude Course Direction KTS MPH feet Rate Location/Type
Fri 04:40:30 AM 39.7000 -86.3000 218° Southwest 162 186 1,900  Level Indianapolis TRACON
Fri 04:41:12 AM 39.6667 -86.3333 218° Southwest 181 208 3,100 2,000 Climbing Indianapolis TRACON
Fri 04:42:03 AM 39.6381 -86.3967 240° Southwest 229 264 5,000 2,919 Climbing Indianapolis Center
Fri 04:43:03 AM 39.6444 -86.4872 275° West 245 282 8,500 2,926 Climbing Indianapolis Center
Fri 04:44:04 AM 39.6528 -86.5908 276° West 274 315 10,900 2,213 Climbing Indianapolis Center
Fri 04:45:05 AM 39.6600 -86.7192 274° West 340 391 13,000 2,331 Climbing Indianapolis Center
Fri 04:46:05 AM 39.6567 -86.8514 268° West 363 418 15,600 2,106 Climbing Indianapolis Center
Fri 04:51:41 AM 39.6434 -87.7099 269° West 450 518 26,900 1,991 Climbing FlightAware ADS-B
Fri 04:53:10 AM 39.6390 -87.9486 269° West 445 512 29,700 1,761 Climbing FlightAware ADS-B
Fri 04:55:19 AM 39.6311 -88.2860 269° West 445 512 33,300 866 Climbing FlightAware ADS-B
Fri 04:58:08 AM 39.6195 -88.7223 268° West 422 486 34,000 171 Climbing FlightAware ADS-B
Fri 04:59:25 AM 39.6141 -88.9122 268° West 427 491 34,000  Level FlightAware ADS-B
Fri 05:00:14 AM 39.6117 -89.0353 268° West 424 488 34,000  Level Indianapolis Center
Fri 05:00:45 AM 39.6072 -89.1078 265° West 428 493 34,000  Level Kansas City Center
Fri 05:01:43 AM 39.6036 -89.2647 268° West 431 496 34,000  Level Kansas City Center
Fri 05:02:44 AM 39.5989 -89.4169 268° West 430 495 34,000  Level Kansas City Center
Fri 05:03:45 AM 39.5928 -89.5675 267° West 425 489 34,000  Level Kansas City Center
Fri 05:04:45 AM 39.5867 -89.7189 267° West 425 489 34,000  Level Kansas City Center
Fri 05:05:46 AM 39.5817 -89.8694 268° West 425 489 34,000  Level Kansas City Center
Fri 05:06:46 AM 39.5758 -90.0206 267° West 423 487 34,000  Level Kansas City Center
Fri 05:07:49 AM 39.5692 -90.1739 267° West 424 488 34,000  Level Kansas City Center
Fri 05:08:49 AM 39.5644 -90.3242 268° West 424 488 34,000  Level Kansas City Center
Fri 05:09:50 AM 39.5575 -90.4747 267° West 423 487 34,000  Level Kansas City Center
Fri 05:10:48 AM 39.5508 -90.6253 267° West 423 487 34,000  Level Kansas City Center
Fri 05:11:51 AM 39.5439 -90.7778 267° West 423 487 34,000  Level Kansas City Center
Fri 05:12:51 AM 39.5372 -90.9306 267° West 424 488 34,000  Level Kansas City Center
Fri 05:13:50 AM 39.5303 -91.0825 267° West 424 488 34,000  Level Kansas City Center
Fri 05:19:23 AM 39.4802 -91.9670 265° West 432 497 34,000  Level FlightAware ADS-B
Fri 05:19:59 AM 39.4741 -92.0597 265° West 434 499 34,000 -234 Level FlightAware ADS-B
Fri 05:20:40 AM 39.4672 -92.1655 265° West 433 498 33,700 -659 Descending FlightAware ADS-B
Fri 05:21:21 AM 39.4602 -92.2676 265° West 428 493 33,100 -975 Descending FlightAware ADS-B
Fri 05:22:00 AM 39.4536 -92.3696 265° West 429 494 32,400 -1,050 Descending FlightAware ADS-B
Fri 05:22:41 AM 39.4470 -92.4672 265° West 437 503 31,700 -1,037 Descending FlightAware ADS-B
Fri 05:23:21 AM 39.4393 -92.5798 265° West 444 511 31,000 -1,050 Descending FlightAware ADS-B
Fri 05:24:01 AM 39.4318 -92.6856 265° West 445 512 30,300 -1,037 Descending FlightAware ADS-B
Fri 05:24:42 AM 39.4243 -92.7942 265° West 447 514 29,600 -1,037 Descending FlightAware ADS-B
Fri 05:25:22 AM 39.4166 -92.9006 265° West 447 514 28,900 -1,658 Descending FlightAware ADS-B
Fri 05:25:58 AM 39.4108 -92.9803 265° West 447 514 27,500 -2,878 Descending FlightAware ADS-B
Fri 05:27:00 AM 39.3981 -93.1555 265° West 439 505 24,200 -2,950 Descending FlightAware ADS-B
Fri 05:27:58 AM 39.3875 -93.3008 265° West 443 510 21,600 -2,450 Descending Kansas City Center
Fri 05:29:00 AM 39.3767 -93.4486 265° West 433 498 19,300 -2,410 Descending Kansas City Center
Fri 05:30:00 AM 39.3656 -93.5911 264° West 410 472 16,700 -2,700 Descending Kansas City Center
Fri 05:31:00 AM 39.3550 -93.7267 264° West 385 443 13,900 -2,311 Descending Kansas City Center
Fri 05:32:02 AM 39.3433 -93.8603 264° West 376 433 12,000 -1,438 Descending Kansas City Center
Fri 05:33:01 AM 39.3331 -93.9825 264° West 340 391 11,000 -1,525 Descending Kansas City Center
Fri 05:34:04 AM 39.3236 -94.0828 263° West 285 328 8,900 -2,231 Descending Kansas City Center
Fri 05:35:02 AM 39.3136 -94.1817 263° West 282 325 6,500 -1,866 Descending Kansas City Center
Fri 05:36:03 AM 39.3050 -94.2764 263° West 267 307 5,200 -1,426 Descending Kansas City Center
Fri 05:37:04 AM 39.2914 -94.3706 259° West 267 307 3,600 -1,073 Descending Kansas City Center
Fri 05:38:06 AM 39.2744 -94.4625 257° West 263 303 3,000 -295 Descending Kansas City Center
Fri 05:39:06 AM 39.2750 -94.5422 271° West 226 260 3,000 -347 Level Kansas City Center
Fri 05:40:07 AM 39.2808 -94.6094 276° West 193 222 2,300 -750 Descending Kansas City Center
Fri 05:41:06 AM 39.2856 -94.6636 276° West 154 177 1,500 -661 Descending Kansas City Center
Fri 05:42:05 AM 39.2906 -94.7214 276° West 147 169 1,000 -508 Descending Kansas City Center

Login

Don't have an account? Register now (free) for customized features, flight alerts, and more!